createdAt,value
2022-10-15T00:00:50.657Z,40.50
2022-10-15T00:01:50.688Z,36.00
2022-10-15T00:02:50.638Z,35.50
2022-10-15T00:03:50.731Z,34.70
2022-10-15T00:04:50.633Z,34.60
2022-10-15T00:05:50.595Z,32.20
2022-10-15T00:06:50.607Z,35.00
2022-10-15T00:07:50.570Z,34.60
2022-10-15T00:08:50.566Z,31.80
2022-10-15T00:09:50.568Z,36.10
2022-10-15T00:10:50.567Z,35.60
2022-10-15T00:11:50.548Z,37.10
2022-10-15T00:12:50.599Z,37.30
2022-10-15T00:13:50.502Z,31.50
2022-10-15T00:14:50.545Z,33.90
2022-10-15T00:15:50.485Z,30.90
2022-10-15T00:16:50.503Z,30.90
2022-10-15T00:17:50.462Z,34.70
2022-10-15T00:18:50.464Z,33.30
2022-10-15T00:19:50.466Z,32.80
2022-10-15T00:20:50.438Z,32.30
2022-10-15T00:21:50.463Z,32.50
2022-10-15T00:22:50.424Z,34.50
2022-10-15T00:23:50.397Z,37.90
2022-10-15T00:24:50.409Z,42.00
2022-10-15T00:25:50.370Z,37.60
2022-10-15T00:26:50.371Z,38.60
2022-10-15T00:27:50.349Z,40.50
2022-10-15T00:28:50.396Z,35.00
2022-10-15T00:29:50.353Z,37.50
2022-10-15T00:30:50.321Z,38.20
2022-10-15T00:31:50.311Z,41.00
2022-10-15T00:32:50.290Z,39.80
2022-10-15T00:33:50.280Z,37.80
2022-10-15T00:34:50.298Z,38.60
2022-10-15T00:35:50.250Z,38.90
2022-10-15T00:36:50.264Z,40.80
2022-10-15T00:37:50.237Z,44.60
2022-10-15T00:38:50.249Z,42.80
2022-10-15T00:39:50.302Z,38.20
2022-10-15T00:40:50.213Z,42.30
2022-10-15T00:41:50.212Z,46.80
2022-10-15T00:42:50.192Z,46.00
2022-10-15T00:43:50.176Z,45.20
2022-10-15T00:44:50.193Z,40.20
2022-10-15T00:45:50.148Z,45.80
2022-10-15T00:46:50.151Z,40.30
2022-10-15T00:47:50.121Z,42.70
2022-10-15T00:48:50.231Z,44.60
2022-10-15T00:49:50.134Z,48.50
2022-10-15T00:50:50.088Z,44.50
2022-10-15T00:51:50.079Z,46.90
2022-10-15T00:52:50.083Z,43.20
2022-10-15T00:53:50.065Z,49.20
2022-10-15T00:54:50.056Z,49.60
2022-10-15T00:55:50.034Z,47.80
2022-10-15T00:56:50.044Z,43.00
2022-10-15T00:57:50.011Z,39.50
2022-10-15T00:58:49.994Z,38.50
2022-10-15T00:59:50.043Z,38.40
2022-10-15T01:00:50.032Z,49.00
2022-10-15T01:01:49.967Z,49.30
2022-10-15T01:02:49.955Z,46.60
2022-10-15T01:03:49.937Z,50.70
2022-10-15T01:04:49.950Z,53.70
2022-10-15T01:05:49.940Z,53.50
2022-10-15T01:06:49.913Z,54.00
2022-10-15T01:07:49.917Z,44.20
2022-10-15T01:08:49.904Z,42.00
2022-10-15T01:09:49.911Z,46.30
2022-10-15T01:10:49.857Z,51.90
2022-10-15T01:11:49.849Z,49.80
2022-10-15T01:12:49.829Z,47.80
2022-10-15T01:13:49.827Z,55.10
2022-10-15T01:14:49.822Z,55.00
2022-10-15T01:15:49.831Z,59.90
2022-10-15T01:16:49.790Z,56.10
2022-10-15T01:17:49.794Z,54.10
2022-10-15T01:18:49.771Z,57.30
2022-10-15T01:19:49.764Z,54.30
2022-10-15T01:20:49.773Z,55.00
2022-10-15T01:21:49.735Z,58.90
2022-10-15T01:22:49.727Z,46.70
2022-10-15T01:23:49.720Z,47.60
2022-10-15T01:24:49.699Z,44.70
2022-10-15T01:25:49.715Z,49.60
2022-10-15T01:26:49.677Z,48.90
2022-10-15T01:27:49.666Z,54.80
2022-10-15T01:28:49.716Z,49.40
2022-10-15T01:29:49.658Z,63.30
2022-10-15T01:30:49.637Z,61.80
2022-10-15T01:31:49.648Z,60.30
2022-10-15T01:32:49.616Z,60.80
2022-10-15T01:33:49.600Z,53.90
2022-10-15T01:34:49.593Z,47.50
2022-10-15T01:35:49.579Z,49.10
2022-10-15T01:36:49.606Z,54.90
2022-10-15T01:37:49.558Z,53.60
2022-10-15T01:38:49.566Z,57.70
2022-10-15T01:39:49.517Z,60.80
2022-10-15T01:40:49.517Z,57.20
2022-10-15T01:41:49.551Z,56.00
2022-10-15T01:42:49.517Z,47.20
2022-10-15T01:43:49.484Z,54.20
2022-10-15T01:44:49.486Z,58.10
2022-10-15T01:45:49.475Z,58.20
2022-10-15T01:46:49.451Z,57.60
2022-10-15T01:47:49.487Z,58.70
2022-10-15T01:48:49.427Z,53.90
2022-10-15T01:49:49.424Z,59.00
2022-10-15T01:50:49.411Z,53.70
2022-10-15T01:51:49.387Z,54.60
2022-10-15T01:52:49.408Z,52.10
2022-10-15T01:53:49.371Z,51.80
2022-10-15T01:54:49.363Z,58.60
2022-10-15T01:55:49.352Z,57.20
2022-10-15T01:56:49.356Z,53.80
2022-10-15T01:57:49.356Z,57.60
2022-10-15T01:58:49.323Z,50.50
2022-10-15T01:59:49.302Z,55.30
2022-10-15T02:00:49.347Z,53.00
2022-10-15T02:01:49.285Z,57.30
2022-10-15T02:02:49.295Z,51.40
2022-10-15T02:03:49.258Z,58.80
2022-10-15T02:04:49.256Z,58.70
2022-10-15T02:05:49.237Z,55.40
2022-10-15T02:06:49.224Z,55.90
2022-10-15T02:07:49.254Z,56.50
2022-10-15T02:08:49.204Z,51.70
2022-10-15T02:09:49.202Z,53.80
2022-10-15T02:10:49.178Z,52.80
2022-10-15T02:11:49.170Z,48.00
2022-10-15T02:12:49.157Z,47.40
2022-10-15T02:13:49.202Z,47.60
2022-10-15T02:14:49.152Z,48.80
2022-10-15T02:15:49.119Z,50.00
2022-10-15T02:16:49.100Z,49.20
2022-10-15T02:17:49.104Z,44.80
2022-10-15T02:18:49.083Z,47.80
2022-10-15T02:19:49.178Z,53.10
2022-10-15T02:20:49.055Z,45.60
2022-10-15T02:21:49.048Z,56.30
2022-10-15T02:22:49.031Z,65.60
2022-10-15T02:23:49.046Z,51.90
2022-10-15T02:24:53.027Z,45.50
2022-10-15T02:25:49.013Z,48.50
2022-10-15T02:26:49.001Z,52.00
2022-10-15T02:27:48.983Z,51.60
2022-10-15T02:28:49.032Z,65.60
2022-10-15T02:29:49.006Z,46.20
2022-10-15T02:30:48.933Z,48.80
2022-10-15T02:31:48.948Z,51.20
2022-10-15T02:32:48.918Z,58.20
2022-10-15T02:33:48.937Z,63.50
2022-10-15T02:34:48.915Z,70.40
2022-10-15T02:35:48.900Z,61.70
2022-10-15T02:36:48.885Z,57.10
2022-10-15T02:37:48.887Z,53.70
2022-10-15T02:38:48.859Z,56.90
2022-10-15T02:39:48.920Z,79.40
2022-10-15T02:40:48.841Z,68.60
2022-10-15T02:41:48.844Z,65.50
2022-10-15T02:42:48.804Z,58.60
2022-10-15T02:43:48.801Z,71.50
2022-10-15T02:44:48.809Z,60.60
2022-10-15T02:45:48.800Z,52.60
2022-10-15T02:46:48.762Z,49.90
2022-10-15T02:47:48.765Z,51.40
2022-10-15T02:48:48.748Z,65.90
2022-10-15T02:49:48.771Z,55.00
2022-10-15T02:50:48.750Z,59.60
2022-10-15T02:51:48.708Z,70.50
2022-10-15T02:52:48.716Z,64.50
2022-10-15T02:53:48.707Z,53.30
2022-10-15T02:54:48.712Z,59.40
2022-10-15T02:55:48.660Z,67.70
2022-10-15T02:56:48.665Z,57.60
2022-10-15T02:57:48.657Z,70.80
2022-10-15T02:58:48.640Z,67.90
2022-10-15T02:59:48.632Z,72.30
2022-10-15T03:00:48.650Z,63.50
2022-10-15T03:01:48.613Z,58.00
2022-10-15T03:02:48.582Z,60.50
2022-10-15T03:03:48.579Z,64.90
2022-10-15T03:04:48.579Z,60.50
2022-10-15T03:05:48.554Z,61.40
2022-10-15T03:06:48.544Z,51.70
2022-10-15T03:07:48.523Z,50.20
2022-10-15T03:08:48.531Z,55.40
2022-10-15T03:09:48.522Z,54.90
2022-10-15T03:10:48.519Z,66.60
2022-10-15T03:11:48.483Z,59.70
2022-10-15T03:12:48.480Z,61.10
2022-10-15T03:13:48.470Z,61.50
2022-10-15T03:14:48.500Z,48.40
2022-10-15T03:15:48.476Z,57.90
2022-10-15T03:16:48.427Z,58.00
2022-10-15T03:17:48.438Z,59.60
2022-10-15T03:18:48.429Z,58.80
2022-10-15T03:19:48.430Z,53.90
2022-10-15T03:20:48.393Z,57.90
2022-10-15T03:21:48.377Z,61.00
2022-10-15T03:22:48.366Z,54.60
2022-10-15T03:23:48.348Z,57.50
2022-10-15T03:24:48.365Z,50.70
2022-10-15T03:25:48.329Z,69.00
2022-10-15T03:26:48.324Z,56.00
2022-10-15T03:27:48.303Z,60.40
2022-10-15T03:28:48.345Z,54.60
2022-10-15T03:29:48.304Z,55.20
2022-10-15T03:30:48.303Z,62.10
2022-10-15T03:31:48.275Z,72.30
2022-10-15T03:32:48.425Z,61.30
2022-10-15T03:33:48.248Z,70.80
2022-10-15T03:34:48.236Z,53.90
2022-10-15T03:35:48.242Z,61.00
2022-10-15T03:36:48.193Z,73.40
2022-10-15T03:37:48.204Z,68.30
2022-10-15T03:38:48.185Z,62.10
2022-10-15T03:39:48.189Z,60.10
2022-10-15T03:40:48.149Z,60.70
2022-10-15T03:41:48.152Z,54.80
2022-10-15T03:42:48.151Z,56.30
2022-10-15T03:43:48.146Z,54.60
2022-10-15T03:44:48.110Z,49.50
2022-10-15T03:45:48.104Z,74.50
2022-10-15T03:46:48.089Z,79.30
2022-10-15T03:47:48.082Z,67.70
2022-10-15T03:48:48.079Z,72.00
2022-10-15T03:49:48.052Z,80.10
2022-10-15T03:50:48.043Z,60.60
2022-10-15T03:51:48.041Z,68.00
2022-10-15T03:52:48.032Z,65.80
2022-10-15T03:53:48.024Z,59.60
2022-10-15T03:54:48.021Z,58.60
2022-10-15T03:55:47.984Z,62.00
2022-10-15T03:56:47.972Z,56.70
2022-10-15T03:57:47.964Z,58.40
2022-10-15T03:58:47.978Z,59.40
2022-10-15T03:59:47.953Z,60.80
2022-10-15T04:00:47.964Z,48.40
2022-10-15T04:01:47.915Z,59.00
2022-10-15T04:02:47.924Z,51.60
2022-10-15T04:03:47.908Z,49.60
2022-10-15T04:04:47.888Z,60.70
2022-10-15T04:05:51.503Z,55.20
2022-10-15T04:06:47.900Z,53.10
2022-10-15T04:07:47.855Z,68.40
2022-10-15T04:08:47.947Z,48.40
2022-10-15T04:09:47.825Z,48.30
2022-10-15T04:10:47.821Z,55.50
2022-10-15T04:11:47.836Z,56.10
2022-10-15T04:12:47.793Z,47.10
2022-10-15T04:13:47.805Z,51.60
2022-10-15T04:14:47.773Z,50.00
2022-10-15T04:15:47.752Z,48.60
2022-10-15T04:16:47.757Z,60.90
2022-10-15T04:17:47.767Z,57.00
2022-10-15T04:18:47.786Z,46.70
2022-10-15T04:19:47.720Z,48.70
2022-10-15T04:20:47.697Z,59.20
2022-10-15T04:21:47.700Z,56.20
2022-10-15T04:22:47.707Z,54.10
2022-10-15T04:23:47.682Z,51.50
2022-10-15T04:24:47.684Z,48.60
2022-10-15T04:25:47.637Z,45.60
2022-10-15T04:26:47.645Z,58.80
2022-10-15T04:27:47.645Z,53.80
2022-10-15T04:28:47.740Z,54.50
2022-10-15T04:29:47.592Z,53.20
2022-10-15T04:30:47.596Z,57.40
2022-10-15T04:31:47.605Z,59.60
2022-10-15T04:32:47.574Z,50.30
2022-10-15T04:33:47.603Z,56.00
2022-10-15T04:34:47.555Z,51.20
2022-10-15T04:35:47.548Z,46.80
2022-10-15T04:36:47.530Z,46.80
2022-10-15T04:37:47.506Z,49.10
2022-10-15T04:38:47.525Z,50.00
2022-10-15T04:39:47.499Z,45.20
2022-10-15T04:40:47.476Z,56.10
2022-10-15T04:41:47.463Z,48.80
2022-10-15T04:42:47.456Z,45.60
2022-10-15T04:43:47.468Z,48.50
2022-10-15T04:44:47.420Z,46.80
2022-10-15T04:45:47.420Z,50.60
2022-10-15T04:46:47.408Z,50.00
2022-10-15T04:47:47.396Z,51.00
2022-10-15T04:48:47.430Z,51.60
2022-10-15T04:49:47.384Z,42.40
2022-10-15T04:50:47.359Z,44.70
2022-10-15T04:51:47.364Z,46.20
2022-10-15T04:52:47.346Z,43.10
2022-10-15T04:53:47.366Z,43.00
2022-10-15T04:54:47.319Z,51.30
2022-10-15T04:55:47.323Z,50.00
2022-10-15T04:56:47.293Z,47.60
2022-10-15T04:57:47.301Z,52.40
2022-10-15T04:58:47.298Z,50.00
2022-10-15T04:59:47.259Z,54.10
2022-10-15T05:00:47.256Z,44.60
2022-10-15T05:01:47.340Z,48.20
2022-10-15T05:02:47.230Z,43.60
2022-10-15T05:03:47.233Z,43.40
2022-10-15T05:04:47.211Z,47.00
2022-10-15T05:05:47.201Z,46.30
2022-10-15T05:06:47.181Z,44.30
2022-10-15T05:07:47.179Z,48.30
2022-10-15T05:08:47.187Z,46.00
2022-10-15T05:09:47.153Z,55.50
2022-10-15T05:10:47.133Z,45.70
2022-10-15T05:11:47.142Z,54.60
2022-10-15T05:12:48.523Z,44.40
2022-10-15T05:13:47.097Z,45.10
2022-10-15T05:14:47.111Z,45.10
2022-10-15T05:15:47.076Z,45.20
2022-10-15T05:16:47.076Z,45.30
2022-10-15T05:17:47.077Z,40.70
2022-10-15T05:18:47.047Z,50.90
2022-10-15T05:19:47.064Z,52.30
2022-10-15T05:20:47.019Z,47.90
2022-10-15T05:21:47.025Z,45.30
2022-10-15T05:22:47.018Z,44.60
2022-10-15T05:23:47.009Z,44.90
2022-10-15T05:24:47.006Z,44.10
2022-10-15T05:25:51.602Z,43.10
2022-10-15T05:26:46.980Z,38.10
2022-10-15T05:27:46.964Z,64.50
2022-10-15T05:28:46.973Z,55.40
2022-10-15T05:29:46.942Z,47.60
2022-10-15T05:30:46.904Z,43.10
2022-10-15T05:31:46.906Z,43.30
2022-10-15T05:32:46.889Z,43.70
2022-10-15T05:33:46.877Z,52.60
2022-10-15T05:34:46.886Z,43.10
2022-10-15T05:35:46.876Z,39.50
2022-10-15T05:36:46.845Z,39.00
2022-10-15T05:37:46.838Z,45.40
2022-10-15T05:38:46.821Z,60.00
2022-10-15T05:39:46.835Z,45.30
2022-10-15T05:40:46.820Z,46.20
2022-10-15T05:41:46.799Z,52.90
2022-10-15T05:42:46.840Z,51.70
2022-10-15T05:43:46.796Z,54.50
2022-10-15T05:44:46.811Z,47.80
2022-10-15T05:45:46.742Z,51.70
2022-10-15T05:46:46.727Z,50.40
2022-10-15T05:47:46.732Z,47.70
2022-10-15T05:48:46.709Z,45.80
2022-10-15T05:49:46.730Z,54.80
2022-10-15T05:50:46.706Z,43.70
2022-10-15T05:51:46.737Z,51.30
2022-10-15T05:52:46.658Z,48.90
2022-10-15T05:53:46.653Z,53.00
2022-10-15T05:54:46.679Z,41.20
2022-10-15T05:55:46.619Z,48.70
2022-10-15T05:56:46.626Z,42.60
2022-10-15T05:57:46.614Z,58.90
2022-10-15T05:58:46.617Z,55.20
2022-10-15T05:59:46.610Z,51.70
2022-10-15T06:00:46.573Z,47.80
2022-10-15T06:01:46.683Z,56.90
2022-10-15T06:02:46.734Z,44.00
2022-10-15T06:03:46.535Z,46.50
2022-10-15T06:04:46.544Z,43.30
2022-10-15T06:05:46.512Z,39.60
2022-10-15T06:06:46.503Z,42.80
2022-10-15T06:07:46.493Z,48.00
2022-10-15T06:08:46.480Z,55.40
2022-10-15T06:09:46.493Z,40.30
2022-10-15T06:10:46.484Z,43.10
2022-10-15T06:11:46.444Z,46.90
2022-10-15T06:12:46.455Z,56.10
2022-10-15T06:13:46.426Z,51.00
2022-10-15T06:14:46.442Z,49.30
2022-10-15T06:15:46.422Z,53.10
2022-10-15T06:16:46.408Z,53.60
2022-10-15T06:17:46.381Z,50.80
2022-10-15T06:18:46.363Z,54.50
2022-10-15T06:19:46.388Z,66.00
2022-10-15T06:20:46.354Z,48.90
2022-10-15T06:21:46.337Z,73.30
2022-10-15T06:22:46.340Z,66.70
2022-10-15T06:23:46.308Z,64.40
2022-10-15T06:24:46.311Z,70.60
2022-10-15T06:25:46.291Z,53.10
2022-10-15T06:26:46.303Z,55.30
2022-10-15T06:27:46.266Z,63.60
2022-10-15T06:28:46.311Z,63.90
2022-10-15T06:29:46.283Z,58.10
2022-10-15T06:30:46.247Z,62.40
2022-10-15T06:31:46.224Z,57.20
2022-10-15T06:32:46.228Z,59.00
2022-10-15T06:33:46.200Z,68.30
2022-10-15T06:34:46.214Z,65.70
2022-10-15T06:35:46.192Z,63.60
2022-10-15T06:36:46.183Z,70.70
2022-10-15T06:37:46.160Z,68.60
2022-10-15T06:38:46.144Z,59.40
2022-10-15T06:39:46.151Z,63.00
2022-10-15T06:40:46.133Z,68.20
2022-10-15T06:41:46.106Z,62.10
2022-10-15T06:42:46.097Z,64.50
2022-10-15T06:43:46.168Z,68.50
2022-10-15T06:44:46.093Z,64.80
2022-10-15T06:45:46.074Z,63.20
2022-10-15T06:46:46.044Z,73.40
2022-10-15T06:47:46.031Z,63.70
2022-10-15T06:48:46.039Z,66.10
2022-10-15T06:49:46.042Z,70.70
2022-10-15T06:50:45.998Z,71.70
2022-10-15T06:51:46.005Z,72.40
2022-10-15T06:52:46.058Z,72.30
2022-10-15T06:53:45.979Z,61.30
2022-10-15T06:54:45.973Z,66.10
2022-10-15T06:55:45.947Z,71.20
2022-10-15T06:56:45.932Z,74.80
2022-10-15T06:57:45.919Z,75.20
2022-10-15T06:58:45.933Z,72.20
2022-10-15T06:59:45.931Z,74.60
2022-10-15T07:00:45.905Z,79.90
2022-10-15T07:01:45.903Z,72.80
2022-10-15T07:02:45.870Z,73.30
2022-10-15T07:03:45.863Z,78.80
2022-10-15T07:04:45.872Z,78.80
2022-10-15T07:05:45.842Z,70.10
2022-10-15T07:06:45.849Z,75.70
2022-10-15T07:07:45.823Z,77.10
2022-10-15T07:08:45.822Z,76.10
2022-10-15T07:09:45.812Z,72.50
2022-10-15T07:10:45.774Z,74.60
2022-10-15T07:11:45.779Z,66.20
2022-10-15T07:12:45.755Z,69.80
2022-10-15T07:13:45.746Z,73.80
2022-10-15T07:14:45.748Z,80.10
2022-10-15T07:15:45.720Z,76.30
2022-10-15T07:16:45.719Z,78.00
2022-10-15T07:17:45.696Z,78.20
2022-10-15T07:18:45.696Z,83.50
2022-10-15T07:19:45.702Z,78.40
2022-10-15T07:20:45.657Z,85.30
2022-10-15T07:21:45.662Z,82.60
2022-10-15T07:22:45.642Z,84.10
2022-10-15T07:23:45.645Z,82.20
2022-10-15T07:24:45.641Z,83.70
2022-10-15T07:25:45.623Z,82.40
2022-10-15T07:26:45.633Z,81.10
2022-10-15T07:27:45.577Z,80.00
2022-10-15T07:28:45.663Z,84.80
2022-10-15T07:29:45.592Z,84.10
2022-10-15T07:30:45.561Z,84.60
2022-10-15T07:32:46.542Z,87.70
2022-10-15T07:33:45.531Z,86.70
2022-10-15T07:34:45.521Z,84.40
2022-10-15T07:35:45.505Z,85.50
2022-10-15T07:36:45.481Z,84.50
2022-10-15T07:37:45.468Z,90.40
2022-10-15T07:38:45.463Z,83.60
2022-10-15T07:39:45.509Z,79.90
2022-10-15T07:40:45.438Z,86.00
2022-10-15T07:41:45.427Z,82.40
2022-10-15T07:42:45.413Z,79.60
2022-10-15T07:43:45.400Z,79.60
2022-10-15T07:44:45.430Z,80.70
2022-10-15T07:45:45.385Z,85.10
2022-10-15T07:46:45.378Z,86.60
2022-10-15T07:47:45.382Z,85.00
2022-10-15T07:48:45.362Z,83.50
2022-10-15T07:49:45.367Z,82.30
2022-10-15T07:50:45.331Z,91.30
2022-10-15T07:51:45.320Z,87.30
2022-10-15T07:52:45.311Z,82.80
2022-10-15T07:53:45.299Z,85.90
2022-10-15T07:54:45.330Z,83.00
2022-10-15T07:55:45.282Z,80.00
2022-10-15T07:56:45.257Z,74.60
2022-10-15T07:57:45.255Z,80.10
2022-10-15T07:58:45.236Z,73.80
2022-10-15T07:59:45.250Z,75.10
2022-10-15T08:00:45.225Z,73.10
2022-10-15T08:01:48.428Z,69.80
2022-10-15T08:02:45.203Z,79.00
2022-10-15T08:03:45.196Z,66.70
2022-10-15T08:04:45.190Z,71.00
2022-10-15T08:05:45.184Z,68.70
2022-10-15T08:06:45.153Z,71.70
2022-10-15T08:07:45.144Z,71.60
2022-10-15T08:08:45.132Z,73.80
2022-10-15T08:10:45.132Z,61.50
2022-10-15T08:11:45.098Z,63.30
2022-10-15T08:12:45.157Z,65.80
2022-10-15T08:13:45.075Z,68.50
2022-10-15T08:14:45.057Z,63.00
2022-10-15T08:15:45.074Z,65.60
2022-10-15T08:16:45.029Z,69.10
2022-10-15T08:17:45.030Z,64.30
2022-10-15T08:18:45.044Z,59.80
2022-10-15T08:19:45.007Z,61.60
2022-10-15T08:20:45.024Z,66.00
2022-10-15T08:21:47.337Z,64.00
2022-10-15T08:22:44.990Z,60.50
2022-10-15T08:23:45.246Z,62.30
2022-10-15T08:24:44.947Z,61.70
2022-10-15T08:25:44.958Z,61.90
2022-10-15T08:26:44.933Z,59.90
2022-10-15T08:27:44.935Z,59.30
2022-10-15T08:28:44.961Z,61.30
2022-10-15T08:29:44.910Z,61.20
2022-10-15T08:30:44.904Z,58.80
2022-10-15T08:31:44.868Z,60.60
2022-10-15T08:32:44.861Z,58.10
2022-10-15T08:33:44.863Z,61.00
2022-10-15T08:34:44.860Z,57.60
2022-10-15T08:35:44.825Z,56.50
2022-10-15T08:36:44.805Z,57.70
2022-10-15T08:37:44.803Z,59.90
2022-10-15T08:38:44.804Z,58.30
2022-10-15T08:39:44.810Z,62.60
2022-10-15T08:40:44.783Z,55.20
2022-10-15T08:41:44.748Z,56.30
2022-10-15T08:42:44.742Z,58.50
2022-10-15T08:43:44.750Z,60.50
2022-10-15T08:44:44.750Z,56.10
2022-10-15T08:45:44.744Z,59.80
2022-10-15T08:46:44.696Z,55.30
2022-10-15T08:47:44.700Z,58.60
2022-10-15T08:48:44.671Z,58.10
2022-10-15T08:49:44.685Z,55.90
2022-10-15T08:50:44.688Z,57.40
2022-10-15T08:51:44.645Z,56.70
2022-10-15T08:52:44.645Z,52.20
2022-10-15T08:53:44.623Z,52.90
2022-10-15T08:54:44.630Z,54.90
2022-10-15T08:55:44.626Z,55.40
2022-10-15T08:56:44.635Z,49.20
2022-10-15T08:57:44.589Z,48.20
2022-10-15T08:58:44.581Z,47.30
2022-10-15T08:59:44.600Z,50.30
2022-10-15T09:00:44.555Z,46.90
2022-10-15T09:01:44.536Z,47.50
2022-10-15T09:02:44.595Z,48.20
2022-10-15T09:03:44.526Z,44.00
2022-10-15T09:04:44.538Z,44.80
2022-10-15T09:05:44.489Z,43.30
2022-10-15T09:06:44.494Z,44.00
2022-10-15T09:07:44.473Z,44.00
2022-10-15T09:08:44.471Z,44.60
2022-10-15T09:09:44.471Z,42.30
2022-10-15T09:10:44.447Z,41.30
2022-10-15T09:11:44.429Z,41.50
2022-10-15T09:12:44.410Z,42.00
2022-10-15T09:13:44.411Z,41.90
2022-10-15T09:14:44.410Z,40.80
2022-10-15T09:15:44.381Z,38.70
2022-10-15T09:16:44.379Z,39.00
2022-10-15T09:17:44.349Z,41.40
2022-10-15T09:18:44.352Z,40.10
2022-10-15T09:19:44.355Z,42.30
2022-10-15T09:20:44.332Z,40.80
2022-10-15T09:21:44.318Z,42.20
2022-10-15T09:22:44.417Z,41.90
2022-10-15T09:23:44.302Z,42.60
2022-10-15T09:24:44.312Z,43.80
2022-10-15T09:25:44.266Z,42.00
2022-10-15T09:26:44.264Z,44.50
2022-10-15T09:27:44.254Z,42.90
2022-10-15T09:28:44.295Z,41.50
2022-10-15T09:29:44.246Z,42.70
2022-10-15T09:30:44.221Z,43.60
2022-10-15T09:31:44.256Z,42.80
2022-10-15T09:32:44.217Z,43.00
2022-10-15T09:33:44.180Z,42.00
2022-10-15T09:34:44.201Z,41.10
2022-10-15T09:35:44.167Z,41.10
2022-10-15T09:36:44.140Z,42.80
2022-10-15T09:37:44.124Z,40.00
2022-10-15T09:38:44.140Z,39.40
2022-10-15T09:39:44.133Z,37.70
2022-10-15T09:40:44.095Z,37.50
2022-10-15T09:41:44.090Z,38.40
2022-10-15T09:42:44.074Z,40.40
2022-10-15T09:43:44.068Z,38.80
2022-10-15T09:44:44.110Z,39.10
2022-10-15T09:45:44.040Z,39.80
2022-10-15T09:46:44.040Z,39.70
2022-10-15T09:47:44.016Z,38.90
2022-10-15T09:48:44.013Z,39.00
2022-10-15T09:49:44.070Z,39.50
2022-10-15T09:50:43.983Z,39.40
2022-10-15T09:51:43.978Z,39.60
2022-10-15T09:52:43.965Z,39.40
2022-10-15T09:53:43.969Z,38.60
2022-10-15T09:54:43.952Z,40.20
2022-10-15T09:55:43.934Z,38.80
2022-10-15T09:56:43.909Z,38.20
2022-10-15T09:57:43.908Z,39.40
2022-10-15T09:58:43.896Z,38.40
2022-10-15T09:59:43.909Z,38.40
2022-10-15T10:00:43.861Z,37.30
2022-10-15T10:01:43.892Z,38.00
2022-10-15T10:02:43.883Z,38.10
2022-10-15T10:03:43.834Z,37.10
2022-10-15T10:04:43.841Z,37.30
2022-10-15T10:05:43.814Z,38.80
2022-10-15T10:06:43.802Z,37.10
2022-10-15T10:07:43.799Z,34.60
2022-10-15T10:08:43.816Z,33.80
2022-10-15T10:09:43.801Z,34.60
2022-10-15T10:10:46.081Z,35.50
2022-10-15T10:11:43.754Z,33.70
2022-10-15T10:12:43.745Z,32.00
2022-10-15T10:13:43.733Z,33.30
2022-10-15T10:14:43.761Z,32.10
2022-10-15T10:15:43.695Z,29.60
2022-10-15T10:16:43.685Z,28.80
2022-10-15T10:17:43.714Z,29.90
2022-10-15T10:18:43.669Z,29.60
2022-10-15T10:19:43.675Z,27.80
2022-10-15T10:20:43.653Z,28.00
2022-10-15T10:21:43.646Z,28.30
2022-10-15T10:22:46.459Z,27.70
2022-10-15T10:23:43.620Z,27.80
2022-10-15T10:24:43.619Z,26.70
2022-10-15T10:25:43.597Z,27.30
2022-10-15T10:26:43.583Z,24.20
2022-10-15T10:27:43.586Z,24.60
2022-10-15T10:28:44.381Z,24.10
2022-10-15T10:29:43.600Z,24.10
2022-10-15T10:30:43.536Z,22.50
2022-10-15T10:31:43.532Z,21.00
2022-10-15T10:32:43.516Z,21.40
2022-10-15T10:33:43.501Z,20.70
2022-10-15T10:34:44.814Z,20.00
2022-10-15T10:35:43.495Z,20.00
2022-10-15T10:36:44.229Z,21.00
2022-10-15T10:37:43.467Z,20.60
2022-10-15T10:38:43.454Z,19.70
2022-10-15T10:39:43.454Z,19.00
2022-10-15T10:40:43.423Z,19.30
2022-10-15T10:41:43.416Z,19.00
2022-10-15T10:42:43.406Z,18.10
2022-10-15T10:43:43.401Z,18.20
2022-10-15T10:44:43.406Z,18.10
2022-10-15T10:45:46.315Z,18.30
2022-10-15T10:46:43.364Z,19.20
2022-10-15T10:47:43.370Z,17.60
2022-10-15T10:48:43.332Z,17.20
2022-10-15T10:49:43.353Z,17.40
2022-10-15T10:50:43.324Z,18.10
2022-10-15T10:51:43.306Z,17.00
2022-10-15T10:52:43.308Z,16.90
2022-10-15T10:53:43.285Z,15.80
2022-10-15T10:54:43.297Z,14.50
2022-10-15T10:55:43.252Z,15.90
2022-10-15T10:56:43.278Z,15.50
2022-10-15T10:57:43.251Z,15.30
2022-10-15T10:58:43.234Z,15.00
2022-10-15T10:59:43.243Z,15.20
2022-10-15T11:00:43.251Z,15.60
2022-10-15T11:01:43.200Z,15.50
2022-10-15T11:02:43.184Z,15.50
2022-10-15T11:03:43.171Z,15.10
2022-10-15T11:04:43.189Z,14.90
2022-10-15T11:05:43.160Z,14.50
2022-10-15T11:06:43.137Z,15.00
2022-10-15T11:07:43.121Z,15.40
2022-10-15T11:08:43.114Z,14.50
2022-10-15T11:09:43.115Z,14.80
2022-10-15T11:10:43.098Z,14.90
2022-10-15T11:11:43.073Z,14.10
2022-10-15T11:12:43.061Z,14.10
2022-10-15T11:13:43.045Z,14.30
2022-10-15T11:14:43.064Z,14.10
2022-10-15T11:15:43.043Z,13.80
2022-10-15T11:16:43.024Z,13.50
2022-10-15T11:17:43.013Z,13.70
2022-10-15T11:18:43.000Z,13.60
2022-10-15T11:20:05.709Z,12.50
2022-10-15T11:20:56.413Z,12.30
2022-10-15T11:21:42.995Z,11.40
2022-10-15T11:22:42.958Z,10.90
2022-10-15T11:23:42.943Z,10.30
2022-10-15T11:24:49.257Z,10.70
2022-10-15T11:25:42.915Z,10.90
2022-10-15T11:26:58.696Z,9.40
2022-10-15T11:27:42.911Z,9.60
2022-10-15T11:28:42.983Z,9.70
2022-10-15T11:29:42.886Z,9.10
2022-10-15T11:30:42.909Z,9.50
2022-10-15T11:31:55.048Z,9.50
2022-10-15T11:33:02.235Z,8.70
2022-10-15T11:33:42.851Z,8.50
2022-10-15T11:34:42.843Z,8.50
2022-10-15T11:35:55.667Z,7.60
2022-10-15T11:36:42.812Z,7.20
2022-10-15T11:37:42.784Z,6.00
2022-10-15T11:38:42.764Z,6.70
2022-10-15T11:39:42.780Z,6.30
2022-10-15T11:40:42.761Z,5.20
2022-10-15T11:41:42.729Z,5.60
2022-10-15T11:42:42.729Z,5.30
2022-10-15T11:43:42.730Z,5.60
2022-10-15T11:44:42.727Z,4.70
2022-10-15T11:45:42.699Z,5.00
2022-10-15T11:46:45.676Z,4.90
2022-10-15T11:47:42.669Z,4.80
2022-10-15T11:48:42.674Z,6.00
2022-10-15T11:49:42.658Z,5.80
2022-10-15T11:50:42.631Z,6.20
2022-10-15T11:51:42.655Z,6.60
2022-10-15T11:52:42.601Z,6.00
2022-10-15T11:53:42.596Z,6.70
2022-10-15T11:54:42.655Z,5.70
2022-10-15T11:55:42.647Z,6.40
2022-10-15T11:56:42.571Z,6.20
2022-10-15T11:57:42.559Z,4.50
2022-10-15T11:58:42.563Z,4.20
2022-10-15T11:59:42.550Z,4.50
2022-10-15T12:00:42.524Z,3.70
2022-10-15T12:01:42.514Z,3.10
2022-10-15T12:02:42.501Z,3.50
2022-10-15T12:03:42.480Z,3.30
2022-10-15T12:04:42.496Z,3.10
2022-10-15T12:05:42.457Z,2.60
2022-10-15T12:06:42.450Z,2.50
2022-10-15T12:07:42.446Z,2.60
2022-10-15T12:08:42.442Z,2.30
2022-10-15T12:09:42.455Z,2.10
2022-10-15T12:10:42.413Z,2.50
2022-10-15T12:11:42.401Z,2.30
2022-10-15T12:12:42.387Z,2.10
2022-10-15T12:13:42.381Z,2.40
2022-10-15T12:14:42.389Z,2.30
2022-10-15T12:15:42.358Z,2.40
2022-10-15T12:16:42.364Z,2.20
2022-10-15T12:17:42.332Z,2.20
2022-10-15T12:18:42.339Z,2.30
2022-10-15T12:19:42.405Z,2.40
2022-10-15T12:20:42.315Z,2.20
2022-10-15T12:21:42.327Z,2.20
2022-10-15T12:22:42.279Z,2.70
2022-10-15T12:23:42.260Z,2.40
2022-10-15T12:24:42.269Z,2.50
2022-10-15T12:25:42.237Z,2.40
2022-10-15T12:26:42.251Z,2.50
2022-10-15T12:27:42.231Z,2.50
2022-10-15T12:28:42.248Z,2.60
2022-10-15T12:29:42.228Z,2.50
2022-10-15T12:30:42.212Z,2.80
2022-10-15T12:31:42.175Z,2.30
2022-10-15T12:32:42.190Z,2.50
2022-10-15T12:33:42.157Z,2.50
2022-10-15T12:34:42.168Z,2.30
2022-10-15T12:35:42.349Z,2.40
2022-10-15T12:36:42.137Z,2.60
2022-10-15T12:37:42.246Z,2.70
2022-10-15T12:38:42.119Z,2.70
2022-10-15T12:39:57.479Z,3.10
2022-10-15T12:40:42.244Z,3.10
2022-10-15T12:41:42.120Z,3.10
2022-10-15T12:42:42.080Z,2.80
2022-10-15T12:43:42.069Z,2.80
2022-10-15T12:44:42.081Z,3.00
2022-10-15T12:45:42.040Z,2.90
2022-10-15T12:46:42.050Z,3.20
2022-10-15T12:47:42.017Z,2.90
2022-10-15T12:48:42.031Z,2.80
2022-10-15T12:49:42.140Z,2.90
2022-10-15T12:50:41.983Z,2.60
2022-10-15T12:51:42.001Z,3.50
2022-10-15T12:52:42.011Z,3.10
2022-10-15T12:53:42.050Z,2.90
2022-10-15T12:54:42.008Z,3.20
2022-10-15T12:55:42.033Z,2.80
2022-10-15T12:56:42.004Z,3.40
2022-10-15T12:57:41.935Z,3.20